sensor_id;sensor_type;location;lat;lon;timestamp;P1;durP1;ratioP1;P2;durP2;ratioP2
56161;SDS011;42045;52.986;6.014;2022-09-30T00:00:19;5.15;;;3.42;;
56161;SDS011;42045;52.986;6.014;2022-09-30T00:02:46;3.95;;;3.55;;
56161;SDS011;42045;52.986;6.014;2022-09-30T00:05:12;4.22;;;3.50;;
56161;SDS011;42045;52.986;6.014;2022-09-30T00:07:38;5.07;;;3.83;;
56161;SDS011;42045;52.986;6.014;2022-09-30T00:10:06;5.80;;;3.65;;
56161;SDS011;42045;52.986;6.014;2022-09-30T00:12:32;5.18;;;4.45;;
56161;SDS011;42045;52.986;6.014;2022-09-30T00:14:58;4.70;;;3.97;;
56161;SDS011;42045;52.986;6.014;2022-09-30T00:17:31;5.03;;;4.47;;
56161;SDS011;42045;52.986;6.014;2022-09-30T00:19:57;4.13;;;3.72;;
56161;SDS011;42045;52.986;6.014;2022-09-30T00:22:23;5.50;;;4.03;;
56161;SDS011;42045;52.986;6.014;2022-09-30T00:24:49;4.88;;;3.63;;
56161;SDS011;42045;52.986;6.014;2022-09-30T00:27:15;14.05;;;4.45;;
56161;SDS011;42045;52.986;6.014;2022-09-30T00:29:43;18.08;;;4.25;;
56161;SDS011;42045;52.986;6.014;2022-09-30T00:32:10;104.43;;;8.30;;
56161;SDS011;42045;52.986;6.014;2022-09-30T00:34:37;31.73;;;5.57;;
56161;SDS011;42045;52.986;6.014;2022-09-30T00:37:03;51.10;;;6.05;;
56161;SDS011;42045;52.986;6.014;2022-09-30T00:39:31;12.50;;;4.18;;
56161;SDS011;42045;52.986;6.014;2022-09-30T00:42:00;68.10;;;6.45;;
56161;SDS011;42045;52.986;6.014;2022-09-30T00:49:53;51.72;;;5.32;;
56161;SDS011;42045;52.986;6.014;2022-09-30T00:52:21;44.05;;;4.43;;
56161;SDS011;42045;52.986;6.014;2022-09-30T00:54:48;32.42;;;3.83;;
56161;SDS011;42045;52.986;6.014;2022-09-30T00:57:31;25.60;;;4.38;;
56161;SDS011;42045;52.986;6.014;2022-09-30T00:59:57;20.83;;;4.47;;
56161;SDS011;42045;52.986;6.014;2022-09-30T01:02:23;84.97;;;6.97;;
56161;SDS011;42045;52.986;6.014;2022-09-30T01:04:49;50.60;;;5.50;;
56161;SDS011;42045;52.986;6.014;2022-09-30T01:07:14;43.35;;;5.95;;
56161;SDS011;42045;52.986;6.014;2022-09-30T01:09:53;119.22;;;9.35;;
56161;SDS011;42045;52.986;6.014;2022-09-30T01:12:21;136.80;;;8.38;;
56161;SDS011;42045;52.986;6.014;2022-09-30T01:14:50;93.78;;;6.20;;
56161;SDS011;42045;52.986;6.014;2022-09-30T01:17:25;41.30;;;5.07;;
56161;SDS011;42045;52.986;6.014;2022-09-30T01:22:47;8.07;;;4.30;;
56161;SDS011;42045;52.986;6.014;2022-09-30T01:31:28;42.63;;;5.03;;
56161;SDS011;42045;52.986;6.014;2022-09-30T01:34:09;9.27;;;3.65;;
56161;SDS011;42045;52.986;6.014;2022-09-30T01:39:36;26.38;;;5.97;;
56161;SDS011;42045;52.986;6.014;2022-09-30T01:48:09;5.85;;;5.35;;
56161;SDS011;42045;52.986;6.014;2022-09-30T01:50:41;7.45;;;6.53;;
56161;SDS011;42045;52.986;6.014;2022-09-30T01:53:25;12.05;;;7.25;;
56161;SDS011;42045;52.986;6.014;2022-09-30T01:56:23;7.90;;;6.63;;
56161;SDS011;42045;52.986;6.014;2022-09-30T01:58:54;7.10;;;6.40;;
56161;SDS011;42045;52.986;6.014;2022-09-30T02:01:28;6.78;;;6.07;;
56161;SDS011;42045;52.986;6.014;2022-09-30T02:07:16;18.17;;;6.45;;
56161;SDS011;42045;52.986;6.014;2022-09-30T02:09:55;10.38;;;6.00;;
56161;SDS011;42045;52.986;6.014;2022-09-30T02:12:27;9.38;;;6.43;;
56161;SDS011;42045;52.986;6.014;2022-09-30T02:15:04;10.65;;;5.80;;
56161;SDS011;42045;52.986;6.014;2022-09-30T02:18:11;21.08;;;6.25;;
56161;SDS011;42045;52.986;6.014;2022-09-30T02:20:35;7.38;;;5.28;;
56161;SDS011;42045;52.986;6.014;2022-09-30T02:23:48;6.10;;;5.40;;
56161;SDS011;42045;52.986;6.014;2022-09-30T02:26:03;5.72;;;5.22;;
56161;SDS011;42045;52.986;6.014;2022-09-30T02:28:36;5.25;;;4.75;;
56161;SDS011;42045;52.986;6.014;2022-09-30T02:31:07;33.22;;;6.13;;
56161;SDS011;42045;52.986;6.014;2022-09-30T02:33:40;5.47;;;4.72;;
56161;SDS011;42045;52.986;6.014;2022-09-30T02:36:22;5.28;;;3.85;;
56161;SDS011;42045;52.986;6.014;2022-09-30T02:39:40;14.05;;;4.47;;
56161;SDS011;42045;52.986;6.014;2022-09-30T02:42:19;6.07;;;3.90;;
56161;SDS011;42045;52.986;6.014;2022-09-30T02:45:03;10.30;;;3.97;;
56161;SDS011;42045;52.986;6.014;2022-09-30T02:58:36;25.83;;;4.00;;
56161;SDS011;42045;52.986;6.014;2022-09-30T03:01:05;27.77;;;4.10;;
56161;SDS011;42045;52.986;6.014;2022-09-30T03:03:43;20.20;;;4.40;;
56161;SDS011;42045;52.986;6.014;2022-09-30T03:06:31;27.75;;;4.13;;
56161;SDS011;42045;52.986;6.014;2022-09-30T03:08:59;43.80;;;4.97;;
56161;SDS011;42045;52.986;6.014;2022-09-30T03:11:26;36.72;;;4.53;;
56161;SDS011;42045;52.986;6.014;2022-09-30T03:14:03;36.25;;;4.70;;
56161;SDS011;42045;52.986;6.014;2022-09-30T03:24:32;11.35;;;3.85;;
56161;SDS011;42045;52.986;6.014;2022-09-30T03:40:57;6.22;;;2.40;;
56161;SDS011;42045;52.986;6.014;2022-09-30T03:48:40;25.48;;;3.38;;
56161;SDS011;42045;52.986;6.014;2022-09-30T03:51:07;7.28;;;2.53;;
56161;SDS011;42045;52.986;6.014;2022-09-30T03:53:40;5.55;;;2.60;;
56161;SDS011;42045;52.986;6.014;2022-09-30T03:56:08;10.68;;;2.90;;
56161;SDS011;42045;52.986;6.014;2022-09-30T03:58:34;3.90;;;2.50;;
56161;SDS011;42045;52.986;6.014;2022-09-30T04:01:05;16.15;;;3.60;;
56161;SDS011;42045;52.986;6.014;2022-09-30T04:03:31;34.83;;;4.68;;
56161;SDS011;42045;52.986;6.014;2022-09-30T04:05:57;8.68;;;3.58;;
56161;SDS011;42045;52.986;6.014;2022-09-30T04:08:24;12.23;;;2.83;;
56161;SDS011;42045;52.986;6.014;2022-09-30T04:10:51;17.08;;;3.30;;
56161;SDS011;42045;52.986;6.014;2022-09-30T04:13:17;13.75;;;3.30;;
56161;SDS011;42045;52.986;6.014;2022-09-30T04:15:43;15.52;;;3.40;;
56161;SDS011;42045;52.986;6.014;2022-09-30T04:18:09;11.02;;;2.88;;
56161;SDS011;42045;52.986;6.014;2022-09-30T04:20:37;6.35;;;2.80;;
56161;SDS011;42045;52.986;6.014;2022-09-30T04:23:04;2.65;;;2.45;;
56161;SDS011;42045;52.986;6.014;2022-09-30T04:25:34;2.22;;;2.03;;
56161;SDS011;42045;52.986;6.014;2022-09-30T04:28:01;2.65;;;2.45;;
56161;SDS011;42045;52.986;6.014;2022-09-30T04:30:27;2.40;;;2.20;;
56161;SDS011;42045;52.986;6.014;2022-09-30T04:32:53;41.60;;;4.38;;
56161;SDS011;42045;52.986;6.014;2022-09-30T04:35:19;40.00;;;4.70;;
56161;SDS011;42045;52.986;6.014;2022-09-30T04:37:50;28.38;;;3.42;;
56161;SDS011;42045;52.986;6.014;2022-09-30T04:40:16;30.40;;;3.58;;
56161;SDS011;42045;52.986;6.014;2022-09-30T04:42:42;12.27;;;3.30;;
56161;SDS011;42045;52.986;6.014;2022-09-30T04:45:09;3.53;;;3.22;;
56161;SDS011;42045;52.986;6.014;2022-09-30T04:47:36;3.72;;;3.22;;
56161;SDS011;42045;52.986;6.014;2022-09-30T04:50:03;22.58;;;5.80;;
56161;SDS011;42045;52.986;6.014;2022-09-30T04:52:30;28.50;;;5.63;;
56161;SDS011;42045;52.986;6.014;2022-09-30T04:54:56;39.92;;;7.45;;
56161;SDS011;42045;52.986;6.014;2022-09-30T04:57:23;54.42;;;7.28;;
56161;SDS011;42045;52.986;6.014;2022-09-30T04:59:49;114.38;;;11.30;;
56161;SDS011;42045;52.986;6.014;2022-09-30T05:02:16;92.15;;;10.57;;
56161;SDS011;42045;52.986;6.014;2022-09-30T05:04:42;10.43;;;6.78;;
56161;SDS011;42045;52.986;6.014;2022-09-30T05:07:08;18.73;;;6.30;;
56161;SDS011;42045;52.986;6.014;2022-09-30T05:09:34;13.98;;;6.13;;
56161;SDS011;42045;52.986;6.014;2022-09-30T05:12:01;8.40;;;6.90;;
56161;SDS011;42045;52.986;6.014;2022-09-30T05:14:28;31.50;;;7.07;;
56161;SDS011;42045;52.986;6.014;2022-09-30T05:16:55;18.52;;;5.53;;
56161;SDS011;42045;52.986;6.014;2022-09-30T05:19:21;6.15;;;5.38;;
56161;SDS011;42045;52.986;6.014;2022-09-30T05:21:50;6.63;;;5.72;;
56161;SDS011;42045;52.986;6.014;2022-09-30T05:24:17;8.70;;;6.22;;
56161;SDS011;42045;52.986;6.014;2022-09-30T05:26:43;8.70;;;6.55;;
56161;SDS011;42045;52.986;6.014;2022-09-30T05:29:09;13.82;;;8.32;;
56161;SDS011;42045;52.986;6.014;2022-09-30T05:31:35;7.75;;;6.97;;
56161;SDS011;42045;52.986;6.014;2022-09-30T05:34:01;17.45;;;7.97;;
56161;SDS011;42045;52.986;6.014;2022-09-30T05:36:28;10.57;;;7.78;;
56161;SDS011;42045;52.986;6.014;2022-09-30T05:38:54;9.48;;;7.70;;
56161;SDS011;42045;52.986;6.014;2022-09-30T05:41:20;142.70;;;11.25;;
56161;SDS011;42045;52.986;6.014;2022-09-30T05:43:47;12.70;;;6.28;;
56161;SDS011;42045;52.986;6.014;2022-09-30T05:46:14;21.02;;;8.50;;
56161;SDS011;42045;52.986;6.014;2022-09-30T05:48:42;15.10;;;8.00;;
56161;SDS011;42045;52.986;6.014;2022-09-30T05:51:09;46.10;;;10.13;;
56161;SDS011;42045;52.986;6.014;2022-09-30T05:53:37;12.73;;;8.82;;
56161;SDS011;42045;52.986;6.014;2022-09-30T05:56:04;9.40;;;7.90;;
56161;SDS011;42045;52.986;6.014;2022-09-30T05:58:31;19.77;;;8.35;;
56161;SDS011;42045;52.986;6.014;2022-09-30T06:01:02;12.75;;;9.13;;
56161;SDS011;42045;52.986;6.014;2022-09-30T06:03:33;16.00;;;10.15;;
56161;SDS011;42045;52.986;6.014;2022-09-30T06:06:01;14.82;;;9.45;;
56161;SDS011;42045;52.986;6.014;2022-09-30T06:08:33;48.80;;;10.57;;
56161;SDS011;42045;52.986;6.014;2022-09-30T06:11:00;32.67;;;9.40;;
56161;SDS011;42045;52.986;6.014;2022-09-30T06:13:26;22.38;;;7.65;;
56161;SDS011;42045;52.986;6.014;2022-09-30T06:16:00;8.07;;;7.28;;
56161;SDS011;42045;52.986;6.014;2022-09-30T06:20:56;11.57;;;7.55;;
56161;SDS011;42045;52.986;6.014;2022-09-30T06:23:26;13.15;;;7.07;;
56161;SDS011;42045;52.986;6.014;2022-09-30T06:25:54;11.35;;;6.90;;
56161;SDS011;42045;52.986;6.014;2022-09-30T06:28:21;9.45;;;6.30;;
56161;SDS011;42045;52.986;6.014;2022-09-30T06:30:51;36.92;;;6.30;;
56161;SDS011;42045;52.986;6.014;2022-09-30T06:33:18;38.35;;;7.47;;
56161;SDS011;42045;52.986;6.014;2022-09-30T06:35:46;80.85;;;7.60;;
56161;SDS011;42045;52.986;6.014;2022-09-30T06:38:13;96.88;;;8.25;;
56161;SDS011;42045;52.986;6.014;2022-09-30T06:40:43;73.05;;;8.57;;
56161;SDS011;42045;52.986;6.014;2022-09-30T06:43:14;111.25;;;9.93;;
56161;SDS011;42045;52.986;6.014;2022-09-30T06:45:40;79.75;;;10.10;;
56161;SDS011;42045;52.986;6.014;2022-09-30T06:48:06;58.50;;;10.85;;
56161;SDS011;42045;52.986;6.014;2022-09-30T06:50:37;79.90;;;11.95;;
56161;SDS011;42045;52.986;6.014;2022-09-30T06:53:04;104.28;;;13.70;;
56161;SDS011;42045;52.986;6.014;2022-09-30T06:55:32;83.25;;;14.15;;
56161;SDS011;42045;52.986;6.014;2022-09-30T06:58:01;74.22;;;13.65;;
56161;SDS011;42045;52.986;6.014;2022-09-30T07:00:32;52.17;;;14.02;;
56161;SDS011;42045;52.986;6.014;2022-09-30T07:02:58;77.50;;;15.05;;
56161;SDS011;42045;52.986;6.014;2022-09-30T07:05:24;131.57;;;18.42;;
56161;SDS011;42045;52.986;6.014;2022-09-30T07:07:56;77.90;;;16.27;;
56161;SDS011;42045;52.986;6.014;2022-09-30T07:10:23;67.47;;;14.73;;
56161;SDS011;42045;52.986;6.014;2022-09-30T07:12:53;90.03;;;16.35;;
56161;SDS011;42045;52.986;6.014;2022-09-30T07:15:20;63.45;;;14.45;;
56161;SDS011;42045;52.986;6.014;2022-09-30T07:17:52;42.90;;;14.07;;
56161;SDS011;42045;52.986;6.014;2022-09-30T07:20:21;55.35;;;15.10;;
56161;SDS011;42045;52.986;6.014;2022-09-30T07:22:47;41.83;;;14.50;;
56161;SDS011;42045;52.986;6.014;2022-09-30T07:25:14;56.85;;;14.48;;
56161;SDS011;42045;52.986;6.014;2022-09-30T07:27:40;65.25;;;15.80;;
56161;SDS011;42045;52.986;6.014;2022-09-30T07:30:07;91.60;;;16.05;;
56161;SDS011;42045;52.986;6.014;2022-09-30T07:32:34;92.88;;;17.42;;
56161;SDS011;42045;52.986;6.014;2022-09-30T07:35:02;89.57;;;16.55;;
56161;SDS011;42045;52.986;6.014;2022-09-30T07:37:28;65.88;;;15.88;;
56161;SDS011;42045;52.986;6.014;2022-09-30T07:40:00;53.15;;;14.45;;
56161;SDS011;42045;52.986;6.014;2022-09-30T07:42:29;62.53;;;14.55;;
56161;SDS011;42045;52.986;6.014;2022-09-30T07:44:56;51.95;;;14.30;;
56161;SDS011;42045;52.986;6.014;2022-09-30T07:47:23;65.97;;;15.82;;
56161;SDS011;42045;52.986;6.014;2022-09-30T07:49:49;76.43;;;15.82;;
56161;SDS011;42045;52.986;6.014;2022-09-30T07:52:15;44.53;;;14.70;;
56161;SDS011;42045;52.986;6.014;2022-09-30T07:54:41;78.00;;;17.17;;
56161;SDS011;42045;52.986;6.014;2022-09-30T07:57:08;29.73;;;13.57;;
56161;SDS011;42045;52.986;6.014;2022-09-30T07:59:36;41.40;;;15.32;;
56161;SDS011;42045;52.986;6.014;2022-09-30T08:02:04;47.08;;;15.48;;
56161;SDS011;42045;52.986;6.014;2022-09-30T08:04:32;46.72;;;16.90;;
56161;SDS011;42045;52.986;6.014;2022-09-30T08:06:59;33.53;;;16.15;;
56161;SDS011;42045;52.986;6.014;2022-09-30T08:09:27;20.50;;;16.52;;
56161;SDS011;42045;52.986;6.014;2022-09-30T08:11:54;30.48;;;16.23;;
56161;SDS011;42045;52.986;6.014;2022-09-30T08:14:21;38.83;;;17.88;;
56161;SDS011;42045;52.986;6.014;2022-09-30T08:16:53;37.28;;;18.55;;
56161;SDS011;42045;52.986;6.014;2022-09-30T08:19:22;20.50;;;18.40;;
56161;SDS011;42045;52.986;6.014;2022-09-30T08:21:49;20.55;;;18.42;;
56161;SDS011;42045;52.986;6.014;2022-09-30T08:24:18;20.83;;;18.92;;
56161;SDS011;42045;52.986;6.014;2022-09-30T08:26:45;19.90;;;18.20;;
56161;SDS011;42045;52.986;6.014;2022-09-30T08:29:11;20.10;;;18.10;;
56161;SDS011;42045;52.986;6.014;2022-09-30T08:31:38;23.05;;;20.75;;
56161;SDS011;42045;52.986;6.014;2022-09-30T08:34:06;22.67;;;20.65;;
56161;SDS011;42045;52.986;6.014;2022-09-30T08:36:33;22.52;;;20.42;;
56161;SDS011;42045;52.986;6.014;2022-09-30T08:38:59;21.63;;;19.58;;
56161;SDS011;42045;52.986;6.014;2022-09-30T08:43:59;22.23;;;20.20;;
56161;SDS011;42045;52.986;6.014;2022-09-30T08:52:52;19.33;;;17.52;;
56161;SDS011;42045;52.986;6.014;2022-09-30T08:55:27;21.15;;;17.48;;
56161;SDS011;42045;52.986;6.014;2022-09-30T08:58:00;17.75;;;15.02;;
56161;SDS011;42045;52.986;6.014;2022-09-30T09:00:28;16.40;;;14.82;;
56161;SDS011;42045;52.986;6.014;2022-09-30T09:03:03;16.25;;;14.57;;
56161;SDS011;42045;52.986;6.014;2022-09-30T09:11:36;13.52;;;12.25;;
56161;SDS011;42045;52.986;6.014;2022-09-30T09:22:27;11.07;;;10.00;;
56161;SDS011;42045;52.986;6.014;2022-09-30T09:24:56;11.77;;;10.48;;
56161;SDS011;42045;52.986;6.014;2022-09-30T09:27:33;9.98;;;9.07;;
56161;SDS011;42045;52.986;6.014;2022-09-30T09:30:10;8.00;;;7.22;;
56161;SDS011;42045;52.986;6.014;2022-09-30T09:32:46;8.45;;;7.05;;
56161;SDS011;42045;52.986;6.014;2022-09-30T09:35:29;7.43;;;6.72;;
56161;SDS011;42045;52.986;6.014;2022-09-30T09:44:16;5.90;;;5.30;;
56161;SDS011;42045;52.986;6.014;2022-09-30T09:46:58;6.07;;;4.82;;
56161;SDS011;42045;52.986;6.014;2022-09-30T09:49:48;6.25;;;5.43;;
56161;SDS011;42045;52.986;6.014;2022-09-30T09:55:16;6.07;;;5.57;;
56161;SDS011;42045;52.986;6.014;2022-09-30T09:57:45;5.70;;;5.10;;
56161;SDS011;42045;52.986;6.014;2022-09-30T10:00:21;7.15;;;6.53;;
56161;SDS011;42045;52.986;6.014;2022-09-30T10:06:00;6.63;;;5.75;;
56161;SDS011;42045;52.986;6.014;2022-09-30T10:08:35;6.53;;;5.93;;
56161;SDS011;42045;52.986;6.014;2022-09-30T10:11:05;8.02;;;6.03;;
56161;SDS011;42045;52.986;6.014;2022-09-30T10:13:44;7.53;;;5.82;;
56161;SDS011;42045;52.986;6.014;2022-09-30T10:16:24;8.18;;;5.70;;
56161;SDS011;42045;52.986;6.014;2022-09-30T10:19:03;7.88;;;5.57;;
56161;SDS011;42045;52.986;6.014;2022-09-30T10:21:41;9.60;;;5.72;;
56161;SDS011;42045;52.986;6.014;2022-09-30T10:24:27;5.68;;;5.00;;
56161;SDS011;42045;52.986;6.014;2022-09-30T10:26:55;5.32;;;4.32;;
56161;SDS011;42045;52.986;6.014;2022-09-30T10:29:28;6.63;;;5.88;;
56161;SDS011;42045;52.986;6.014;2022-09-30T10:31:59;6.75;;;5.70;;
56161;SDS011;42045;52.986;6.014;2022-09-30T10:34:28;10.43;;;6.13;;
56161;SDS011;42045;52.986;6.014;2022-09-30T10:36:58;5.88;;;5.38;;
56161;SDS011;42045;52.986;6.014;2022-09-30T10:39:36;6.03;;;5.30;;
56161;SDS011;42045;52.986;6.014;2022-09-30T10:42:20;6.40;;;4.80;;
56161;SDS011;42045;52.986;6.014;2022-09-30T10:47:22;5.93;;;5.32;;
56161;SDS011;42045;52.986;6.014;2022-09-30T10:50:06;5.30;;;4.82;;
56161;SDS011;42045;52.986;6.014;2022-09-30T10:52:37;6.30;;;4.55;;
56161;SDS011;42045;52.986;6.014;2022-09-30T10:57:44;4.97;;;4.22;;
56161;SDS011;42045;52.986;6.014;2022-09-30T11:00:16;7.90;;;4.75;;
56161;SDS011;42045;52.986;6.014;2022-09-30T11:05:32;6.13;;;5.53;;
56161;SDS011;42045;52.986;6.014;2022-09-30T11:08:12;5.93;;;4.90;;
56161;SDS011;42045;52.986;6.014;2022-09-30T11:11:13;5.85;;;4.35;;
56161;SDS011;42045;52.986;6.014;2022-09-30T11:24:51;4.05;;;2.72;;
56161;SDS011;42045;52.986;6.014;2022-09-30T11:30:38;3.05;;;2.75;;
56161;SDS011;42045;52.986;6.014;2022-09-30T11:41:53;3.63;;;2.85;;
56161;SDS011;42045;52.986;6.014;2022-09-30T11:44:31;5.75;;;2.78;;
56161;SDS011;42045;52.986;6.014;2022-09-30T11:47:02;6.22;;;3.35;;
56161;SDS011;42045;52.986;6.014;2022-09-30T11:50:15;6.30;;;3.38;;
56161;SDS011;42045;52.986;6.014;2022-09-30T11:58:13;4.40;;;3.00;;
56161;SDS011;42045;52.986;6.014;2022-09-30T12:00:48;2.53;;;2.20;;
56161;SDS011;42045;52.986;6.014;2022-09-30T12:03:30;3.97;;;2.30;;
56161;SDS011;42045;52.986;6.014;2022-09-30T12:06:02;4.35;;;2.85;;
56161;SDS011;42045;52.986;6.014;2022-09-30T12:08:45;5.18;;;2.40;;
56161;SDS011;42045;52.986;6.014;2022-09-30T12:11:16;5.32;;;2.70;;
56161;SDS011;42045;52.986;6.014;2022-09-30T12:14:11;3.65;;;2.40;;
56161;SDS011;42045;52.986;6.014;2022-09-30T12:16:47;9.45;;;3.00;;
56161;SDS011;42045;52.986;6.014;2022-09-30T12:21:49;5.55;;;2.95;;
56161;SDS011;42045;52.986;6.014;2022-09-30T12:24:28;4.82;;;3.10;;
56161;SDS011;42045;52.986;6.014;2022-09-30T12:27:02;4.65;;;3.75;;
56161;SDS011;42045;52.986;6.014;2022-09-30T12:29:36;6.65;;;3.70;;
56161;SDS011;42045;52.986;6.014;2022-09-30T12:37:50;7.47;;;4.07;;
56161;SDS011;42045;52.986;6.014;2022-09-30T12:40:48;5.68;;;4.75;;
56161;SDS011;42045;52.986;6.014;2022-09-30T12:46:12;6.93;;;3.78;;
56161;SDS011;42045;52.986;6.014;2022-09-30T12:51:08;4.63;;;3.88;;
56161;SDS011;42045;52.986;6.014;2022-09-30T12:53:38;7.07;;;4.10;;
56161;SDS011;42045;52.986;6.014;2022-09-30T12:56:09;4.88;;;3.50;;
56161;SDS011;42045;52.986;6.014;2022-09-30T12:58:41;4.95;;;3.60;;
56161;SDS011;42045;52.986;6.014;2022-09-30T13:03:52;5.60;;;3.88;;
56161;SDS011;42045;52.986;6.014;2022-09-30T13:11:43;4.85;;;3.80;;
56161;SDS011;42045;52.986;6.014;2022-09-30T13:14:45;5.97;;;4.40;;
56161;SDS011;42045;52.986;6.014;2022-09-30T13:19:43;5.43;;;4.60;;
56161;SDS011;42045;52.986;6.014;2022-09-30T13:30:30;7.30;;;5.10;;
56161;SDS011;42045;52.986;6.014;2022-09-30T13:40:40;21.77;;;5.85;;
56161;SDS011;42045;52.986;6.014;2022-09-30T13:46:28;15.20;;;6.00;;
56161;SDS011;42045;52.986;6.014;2022-09-30T13:49:20;5.38;;;4.30;;
56161;SDS011;42045;52.986;6.014;2022-09-30T13:51:48;10.20;;;5.03;;
56161;SDS011;42045;52.986;6.014;2022-09-30T13:56:59;5.50;;;3.97;;
56161;SDS011;42045;52.986;6.014;2022-09-30T13:59:39;7.70;;;3.83;;
56161;SDS011;42045;52.986;6.014;2022-09-30T14:10:33;4.28;;;1.90;;
56161;SDS011;42045;52.986;6.014;2022-09-30T14:16:18;6.72;;;2.55;;
56161;SDS011;42045;52.986;6.014;2022-09-30T14:19:03;4.15;;;1.98;;
56161;SDS011;42045;52.986;6.014;2022-09-30T14:21:33;8.98;;;3.28;;
56161;SDS011;42045;52.986;6.014;2022-09-30T14:24:00;6.28;;;2.47;;
56161;SDS011;42045;52.986;6.014;2022-09-30T14:26:51;5.78;;;2.85;;
56161;SDS011;42045;52.986;6.014;2022-09-30T14:29:44;3.55;;;1.88;;
56161;SDS011;42045;52.986;6.014;2022-09-30T14:32:31;3.08;;;2.78;;
56161;SDS011;42045;52.986;6.014;2022-09-30T14:35:06;8.77;;;2.63;;
56161;SDS011;42045;52.986;6.014;2022-09-30T14:37:36;2.30;;;1.75;;
56161;SDS011;42045;52.986;6.014;2022-09-30T14:42:38;3.47;;;2.10;;
56161;SDS011;42045;52.986;6.014;2022-09-30T14:45:06;3.22;;;2.05;;
56161;SDS011;42045;52.986;6.014;2022-09-30T14:47:35;5.97;;;2.60;;
56161;SDS011;42045;52.986;6.014;2022-09-30T14:52:44;5.50;;;2.20;;
56161;SDS011;42045;52.986;6.014;2022-09-30T14:55:16;8.15;;;3.40;;
56161;SDS011;42045;52.986;6.014;2022-09-30T14:57:54;3.92;;;2.50;;
56161;SDS011;42045;52.986;6.014;2022-09-30T15:01:04;3.88;;;1.77;;
56161;SDS011;42045;52.986;6.014;2022-09-30T15:03:40;5.93;;;2.40;;
56161;SDS011;42045;52.986;6.014;2022-09-30T15:06:16;3.83;;;2.10;;
56161;SDS011;42045;52.986;6.014;2022-09-30T15:08:47;3.88;;;2.60;;
56161;SDS011;42045;52.986;6.014;2022-09-30T15:11:18;3.50;;;2.00;;
56161;SDS011;42045;52.986;6.014;2022-09-30T15:14:02;3.42;;;2.15;;
56161;SDS011;42045;52.986;6.014;2022-09-30T15:16:46;5.72;;;2.15;;
56161;SDS011;42045;52.986;6.014;2022-09-30T15:19:23;3.17;;;2.42;;
56161;SDS011;42045;52.986;6.014;2022-09-30T15:21:57;4.47;;;2.60;;
56161;SDS011;42045;52.986;6.014;2022-09-30T15:24:30;3.67;;;2.67;;
56161;SDS011;42045;52.986;6.014;2022-09-30T15:27:01;7.15;;;2.80;;
56161;SDS011;42045;52.986;6.014;2022-09-30T15:29:28;3.85;;;3.22;;
56161;SDS011;42045;52.986;6.014;2022-09-30T15:31:59;5.45;;;3.47;;
56161;SDS011;42045;52.986;6.014;2022-09-30T15:34:41;4.15;;;2.65;;
56161;SDS011;42045;52.986;6.014;2022-09-30T15:37:17;4.40;;;3.15;;
56161;SDS011;42045;52.986;6.014;2022-09-30T15:39:47;3.08;;;2.47;;
56161;SDS011;42045;52.986;6.014;2022-09-30T15:42:34;3.75;;;2.58;;
56161;SDS011;42045;52.986;6.014;2022-09-30T15:47:56;6.35;;;2.60;;
56161;SDS011;42045;52.986;6.014;2022-09-30T15:50:40;4.68;;;2.72;;
56161;SDS011;42045;52.986;6.014;2022-09-30T15:53:17;4.00;;;2.73;;
56161;SDS011;42045;52.986;6.014;2022-09-30T15:55:50;3.80;;;3.03;;
56161;SDS011;42045;52.986;6.014;2022-09-30T15:58:36;4.25;;;2.97;;
56161;SDS011;42045;52.986;6.014;2022-09-30T16:01:16;5.95;;;4.00;;
56161;SDS011;42045;52.986;6.014;2022-09-30T16:03:59;6.53;;;3.90;;
56161;SDS011;42045;52.986;6.014;2022-09-30T16:09:38;5.88;;;4.30;;
56161;SDS011;42045;52.986;6.014;2022-09-30T16:14:38;9.98;;;5.32;;
56161;SDS011;42045;52.986;6.014;2022-09-30T16:17:31;8.35;;;5.05;;
56161;SDS011;42045;52.986;6.014;2022-09-30T16:20:10;6.95;;;5.38;;
56161;SDS011;42045;52.986;6.014;2022-09-30T16:22:48;8.27;;;4.78;;
56161;SDS011;42045;52.986;6.014;2022-09-30T16:27:48;6.82;;;5.30;;
56161;SDS011;42045;52.986;6.014;2022-09-30T16:30:23;5.70;;;5.10;;
56161;SDS011;42045;52.986;6.014;2022-09-30T16:32:52;5.43;;;4.60;;
56161;SDS011;42045;52.986;6.014;2022-09-30T16:35:22;10.65;;;5.35;;
56161;SDS011;42045;52.986;6.014;2022-09-30T16:37:53;6.05;;;5.45;;
56161;SDS011;42045;52.986;6.014;2022-09-30T16:40:26;5.35;;;4.28;;
56161;SDS011;42045;52.986;6.014;2022-09-30T16:42:53;6.85;;;5.75;;
56161;SDS011;42045;52.986;6.014;2022-09-30T16:45:19;5.35;;;4.85;;
56161;SDS011;42045;52.986;6.014;2022-09-30T16:47:45;6.63;;;5.93;;
56161;SDS011;42045;52.986;6.014;2022-09-30T16:50:14;4.90;;;4.35;;
56161;SDS011;42045;52.986;6.014;2022-09-30T16:52:43;7.10;;;4.60;;
56161;SDS011;42045;52.986;6.014;2022-09-30T16:55:08;5.38;;;4.50;;
56161;SDS011;42045;52.986;6.014;2022-09-30T16:57:34;7.25;;;4.45;;
56161;SDS011;42045;52.986;6.014;2022-09-30T17:00:02;10.80;;;5.03;;
56161;SDS011;42045;52.986;6.014;2022-09-30T17:02:32;13.65;;;5.82;;
56161;SDS011;42045;52.986;6.014;2022-09-30T17:04:57;5.10;;;4.30;;
56161;SDS011;42045;52.986;6.014;2022-09-30T17:07:23;5.43;;;4.90;;
56161;SDS011;42045;52.986;6.014;2022-09-30T17:09:49;6.50;;;5.10;;
56161;SDS011;42045;52.986;6.014;2022-09-30T17:12:16;8.98;;;5.40;;
56161;SDS011;42045;52.986;6.014;2022-09-30T17:14:42;6.00;;;5.40;;
56161;SDS011;42045;52.986;6.014;2022-09-30T17:17:08;9.05;;;5.60;;
56161;SDS011;42045;52.986;6.014;2022-09-30T17:19:34;5.47;;;4.97;;
56161;SDS011;42045;52.986;6.014;2022-09-30T17:22:01;6.75;;;5.72;;
56161;SDS011;42045;52.986;6.014;2022-09-30T17:24:27;9.68;;;6.22;;
56161;SDS011;42045;52.986;6.014;2022-09-30T17:26:53;6.55;;;5.90;;
56161;SDS011;42045;52.986;6.014;2022-09-30T17:29:19;6.75;;;5.85;;
56161;SDS011;42045;52.986;6.014;2022-09-30T17:31:45;5.53;;;4.97;;
56161;SDS011;42045;52.986;6.014;2022-09-30T17:34:10;6.82;;;5.93;;
56161;SDS011;42045;52.986;6.014;2022-09-30T17:36:37;7.00;;;6.30;;
56161;SDS011;42045;52.986;6.014;2022-09-30T17:39:03;7.38;;;6.35;;
56161;SDS011;42045;52.986;6.014;2022-09-30T17:41:30;6.97;;;6.28;;
56161;SDS011;42045;52.986;6.014;2022-09-30T17:44:14;8.05;;;6.28;;
56161;SDS011;42045;52.986;6.014;2022-09-30T17:46:43;7.47;;;6.32;;
56161;SDS011;42045;52.986;6.014;2022-09-30T17:49:13;7.85;;;6.50;;
56161;SDS011;42045;52.986;6.014;2022-09-30T17:51:41;7.80;;;6.68;;
56161;SDS011;42045;52.986;6.014;2022-09-30T17:54:19;7.75;;;6.80;;
56161;SDS011;42045;52.986;6.014;2022-09-30T17:56:45;8.40;;;7.45;;
56161;SDS011;42045;52.986;6.014;2022-09-30T17:59:18;8.88;;;6.80;;
56161;SDS011;42045;52.986;6.014;2022-09-30T18:01:48;9.52;;;7.10;;
56161;SDS011;42045;52.986;6.014;2022-09-30T18:04:25;7.60;;;6.82;;
56161;SDS011;42045;52.986;6.014;2022-09-30T18:06:53;8.52;;;7.65;;
56161;SDS011;42045;52.986;6.014;2022-09-30T18:09:20;9.02;;;7.88;;
56161;SDS011;42045;52.986;6.014;2022-09-30T18:11:49;11.77;;;8.35;;
56161;SDS011;42045;52.986;6.014;2022-09-30T18:14:19;11.50;;;8.00;;
56161;SDS011;42045;52.986;6.014;2022-09-30T18:16:45;8.55;;;7.63;;
56161;SDS011;42045;52.986;6.014;2022-09-30T18:19:14;11.38;;;7.85;;
56161;SDS011;42045;52.986;6.014;2022-09-30T18:21:43;8.82;;;7.78;;
56161;SDS011;42045;52.986;6.014;2022-09-30T18:24:09;8.32;;;7.32;;
56161;SDS011;42045;52.986;6.014;2022-09-30T18:26:34;8.43;;;7.43;;
56161;SDS011;42045;52.986;6.014;2022-09-30T18:29:06;7.78;;;7.05;;
56161;SDS011;42045;52.986;6.014;2022-09-30T18:31:32;8.07;;;7.25;;
56161;SDS011;42045;52.986;6.014;2022-09-30T18:34:05;9.05;;;7.78;;
56161;SDS011;42045;52.986;6.014;2022-09-30T18:36:31;7.95;;;7.20;;
56161;SDS011;42045;52.986;6.014;2022-09-30T18:38:57;8.52;;;7.65;;